createdAt,value
2022-10-11T00:09:56.987Z,8
2022-10-11T00:38:19.359Z,8
2022-10-11T01:06:33.600Z,11
2022-10-11T01:35:23.703Z,13
2022-10-11T02:04:11.951Z,11
2022-10-11T02:33:08.487Z,14
2022-10-11T03:01:45.358Z,16
2022-10-11T03:30:34.322Z,14
2022-10-11T03:59:21.363Z,14
2022-10-11T04:27:39.266Z,14
2022-10-11T04:55:59.044Z,16
2022-10-11T05:24:15.350Z,19
2022-10-11T05:52:26.501Z,22
2022-10-11T06:20:46.313Z,26
2022-10-11T06:49:41.694Z,29
2022-10-11T07:18:01.604Z,36
2022-10-11T07:46:22.451Z,42
2022-10-11T08:15:29.181Z,39
2022-10-11T08:44:34.138Z,29
2022-10-11T09:12:49.944Z,17
2022-10-11T09:41:14.190Z,14
2022-10-11T10:10:07.896Z,17
2022-10-11T10:39:24.885Z,17
2022-10-11T11:08:29.907Z,14
2022-10-11T11:37:24.294Z,10
2022-10-11T12:06:33.815Z,13
2022-10-11T12:34:56.869Z,13
2022-10-11T13:04:00.243Z,14
2022-10-11T13:32:55.493Z,15
2022-10-11T14:01:51.182Z,16
2022-10-11T14:30:24.880Z,16
2022-10-11T14:58:28.135Z,14
2022-10-11T15:26:45.903Z,16
2022-10-11T15:55:35.385Z,17
2022-10-11T16:24:21.989Z,17
2022-10-11T16:53:16.063Z,17
2022-10-11T17:22:06.983Z,17
2022-10-11T17:50:56.342Z,20
2022-10-11T18:19:54.596Z,19
2022-10-11T18:48:40.845Z,20
2022-10-11T19:17:42.784Z,20
2022-10-11T19:45:57.143Z,11
2022-10-11T20:14:16.597Z,11
2022-10-11T20:42:33.176Z,10
2022-10-11T21:10:48.519Z,11
2022-10-11T21:39:09.206Z,13
2022-10-11T22:08:05.178Z,11
2022-10-11T22:37:00.465Z,11
2022-10-11T23:05:56.364Z,10
2022-10-11T23:34:45.408Z,11
